sensor_id;sensor_type;location;lat;lon;timestamp;pressure;altitude;pressure_sealevel;temperature;humidity
49030;BME280;43337;52.070;4.508;2023-03-14T00:00:49;98952.59;;;10.19;100.00
49030;BME280;43337;52.070;4.508;2023-03-14T00:03:15;98925.94;;;10.00;100.00
49030;BME280;43337;52.070;4.508;2023-03-14T00:05:40;98938.28;;;10.11;100.00
49030;BME280;43337;52.070;4.508;2023-03-14T00:08:06;98945.63;;;10.18;100.00
49030;BME280;43337;52.070;4.508;2023-03-14T00:10:31;98938.69;;;10.17;100.00
49030;BME280;43337;52.070;4.508;2023-03-14T00:12:56;98947.13;;;10.22;100.00
49030;BME280;43337;52.070;4.508;2023-03-14T00:15:22;98937.84;;;10.17;100.00
49030;BME280;43337;52.070;4.508;2023-03-14T00:17:47;98929.88;;;10.06;100.00
49030;BME280;43337;52.070;4.508;2023-03-14T00:20:12;98935.91;;;10.08;100.00
49030;BME280;43337;52.070;4.508;2023-03-14T00:22:39;98946.78;;;10.14;100.00
49030;BME280;43337;52.070;4.508;2023-03-14T00:25:09;98965.19;;;10.14;100.00
49030;BME280;43337;52.070;4.508;2023-03-14T00:27:35;98956.59;;;10.12;100.00
49030;BME280;43337;52.070;4.508;2023-03-14T00:30:02;98977.44;;;10.15;100.00
49030;BME280;43337;52.070;4.508;2023-03-14T00:32:28;98953.00;;;10.13;100.00
49030;BME280;43337;52.070;4.508;2023-03-14T00:34:54;98939.69;;;10.03;100.00
49030;BME280;43337;52.070;4.508;2023-03-14T00:37:19;98958.81;;;10.06;100.00
49030;BME280;43337;52.070;4.508;2023-03-14T00:39:44;98953.88;;;10.01;100.00
49030;BME280;43337;52.070;4.508;2023-03-14T00:42:10;98957.97;;;10.05;100.00
49030;BME280;43337;52.070;4.508;2023-03-14T00:44:35;98955.13;;;9.95;100.00
49030;BME280;43337;52.070;4.508;2023-03-14T00:47:01;98955.75;;;9.99;100.00
49030;BME280;43337;52.070;4.508;2023-03-14T00:49:27;98975.13;;;9.98;100.00
49030;BME280;43337;52.070;4.508;2023-03-14T00:51:52;98967.16;;;9.87;100.00
49030;BME280;43337;52.070;4.508;2023-03-14T00:54:19;98975.56;;;9.92;100.00
49030;BME280;43337;52.070;4.508;2023-03-14T00:56:46;98949.94;;;9.70;100.00
49030;BME280;43337;52.070;4.508;2023-03-14T00:59:11;98961.59;;;9.78;100.00
49030;BME280;43337;52.070;4.508;2023-03-14T01:01:38;98975.97;;;9.86;100.00
49030;BME280;43337;52.070;4.508;2023-03-14T01:04:04;98980.41;;;9.85;100.00
49030;BME280;43337;52.070;4.508;2023-03-14T01:06:31;98962.75;;;9.74;100.00
49030;BME280;43337;52.070;4.508;2023-03-14T01:08:57;98969.69;;;9.75;100.00
49030;BME280;43337;52.070;4.508;2023-03-14T01:11:24;98979.78;;;9.82;100.00
49030;BME280;43337;52.070;4.508;2023-03-14T01:13:50;98969.25;;;9.82;100.00
49030;BME280;43337;52.070;4.508;2023-03-14T01:16:16;98951.59;;;9.71;100.00
49030;BME280;43337;52.070;4.508;2023-03-14T01:18:44;98916.81;;;9.67;100.00
49030;BME280;43337;52.070;4.508;2023-03-14T01:21:13;98915.34;;;9.63;100.00
49030;BME280;43337;52.070;4.508;2023-03-14T01:23:39;98941.00;;;9.72;100.00
49030;BME280;43337;52.070;4.508;2023-03-14T01:26:08;98933.72;;;9.76;100.00
49030;BME280;43337;52.070;4.508;2023-03-14T01:28:33;98910.84;;;9.52;100.00
49030;BME280;43337;52.070;4.508;2023-03-14T01:31:05;98963.06;;;9.70;100.00
49030;BME280;43337;52.070;4.508;2023-03-14T01:33:31;98963.78;;;9.72;100.00
49030;BME280;43337;52.070;4.508;2023-03-14T01:35:57;98956.66;;;9.61;100.00
49030;BME280;43337;52.070;4.508;2023-03-14T01:38:22;98945.63;;;9.56;100.00
49030;BME280;43337;52.070;4.508;2023-03-14T01:40:47;98965.69;;;9.70;100.00
49030;BME280;43337;52.070;4.508;2023-03-14T01:43:16;98961.69;;;9.64;100.00
49030;BME280;43337;52.070;4.508;2023-03-14T01:48:38;98962.13;;;9.71;100.00
49030;BME280;43337;52.070;4.508;2023-03-14T01:51:06;98962.31;;;9.68;100.00
49030;BME280;43337;52.070;4.508;2023-03-14T01:53:35;98949.19;;;9.68;100.00
49030;BME280;43337;52.070;4.508;2023-03-14T01:56:03;98943.09;;;9.67;100.00
49030;BME280;43337;52.070;4.508;2023-03-14T01:58:31;98954.16;;;9.72;100.00
49030;BME280;43337;52.070;4.508;2023-03-14T02:01:01;98947.19;;;9.71;100.00
49030;BME280;43337;52.070;4.508;2023-03-14T02:03:30;98945.41;;;9.72;100.00
49030;BME280;43337;52.070;4.508;2023-03-14T02:06:03;98941.00;;;9.72;100.00
49030;BME280;43337;52.070;4.508;2023-03-14T02:08:30;98923.66;;;9.70;100.00
49030;BME280;43337;52.070;4.508;2023-03-14T02:10:56;98929.53;;;9.73;100.00
49030;BME280;43337;52.070;4.508;2023-03-14T02:13:22;98920.28;;;9.68;100.00
49030;BME280;43337;52.070;4.508;2023-03-14T02:15:48;98926.91;;;9.73;100.00
49030;BME280;43337;52.070;4.508;2023-03-14T02:18:16;98910.00;;;9.65;100.00
49030;BME280;43337;52.070;4.508;2023-03-14T02:23:41;98896.00;;;9.64;100.00
49030;BME280;43337;52.070;4.508;2023-03-14T02:26:17;98923.53;;;9.71;100.00
49030;BME280;43337;52.070;4.508;2023-03-14T02:28:46;98903.78;;;9.66;100.00
49030;BME280;43337;52.070;4.508;2023-03-14T02:31:12;98922.69;;;9.71;100.00
49030;BME280;43337;52.070;4.508;2023-03-14T02:33:38;98910.94;;;9.64;100.00
49030;BME280;43337;52.070;4.508;2023-03-14T02:36:09;98926.50;;;9.67;100.00
49030;BME280;43337;52.070;4.508;2023-03-14T02:38:52;98910.22;;;9.62;100.00
49030;BME280;43337;52.070;4.508;2023-03-14T02:41:20;98922.06;;;9.67;100.00
49030;BME280;43337;52.070;4.508;2023-03-14T02:43:45;98904.31;;;9.58;100.00
49030;BME280;43337;52.070;4.508;2023-03-14T02:46:13;98887.94;;;9.54;100.00
49030;BME280;43337;52.070;4.508;2023-03-14T02:48:55;98916.50;;;9.59;100.00
49030;BME280;43337;52.070;4.508;2023-03-14T02:51:23;98908.94;;;9.54;100.00
49030;BME280;43337;52.070;4.508;2023-03-14T02:53:49;98883.75;;;9.39;100.00
49030;BME280;43337;52.070;4.508;2023-03-14T02:56:15;98908.13;;;9.54;100.00
49030;BME280;43337;52.070;4.508;2023-03-14T02:58:40;98891.31;;;9.44;100.00
49030;BME280;43337;52.070;4.508;2023-03-14T03:01:06;98911.16;;;9.48;100.00
49030;BME280;43337;52.070;4.508;2023-03-14T03:03:31;98900.56;;;9.49;100.00
49030;BME280;43337;52.070;4.508;2023-03-14T03:05:57;98905.69;;;9.51;100.00
49030;BME280;43337;52.070;4.508;2023-03-14T03:08:24;98905.81;;;9.49;100.00
49030;BME280;43337;52.070;4.508;2023-03-14T03:10:51;98896.84;;;9.52;100.00
49030;BME280;43337;52.070;4.508;2023-03-14T03:13:17;98894.44;;;9.49;100.00
49030;BME280;43337;52.070;4.508;2023-03-14T03:15:44;98899.41;;;9.53;100.00
49030;BME280;43337;52.070;4.508;2023-03-14T03:18:09;98914.09;;;9.56;100.00
49030;BME280;43337;52.070;4.508;2023-03-14T03:20:35;98888.97;;;9.52;100.00
49030;BME280;43337;52.070;4.508;2023-03-14T03:23:02;98886.47;;;9.50;100.00
49030;BME280;43337;52.070;4.508;2023-03-14T03:25:28;98885.94;;;9.58;100.00
49030;BME280;43337;52.070;4.508;2023-03-14T03:27:54;98882.34;;;9.59;100.00
49030;BME280;43337;52.070;4.508;2023-03-14T03:30:19;98865.34;;;9.52;100.00
49030;BME280;43337;52.070;4.508;2023-03-14T03:32:45;98884.88;;;9.61;100.00
49030;BME280;43337;52.070;4.508;2023-03-14T03:35:10;98888.34;;;9.61;100.00
49030;BME280;43337;52.070;4.508;2023-03-14T03:37:36;98885.72;;;9.61;100.00
49030;BME280;43337;52.070;4.508;2023-03-14T03:40:02;98873.00;;;9.55;100.00
49030;BME280;43337;52.070;4.508;2023-03-14T03:42:31;98892.66;;;9.62;100.00
49030;BME280;43337;52.070;4.508;2023-03-14T03:44:56;98872.69;;;9.60;100.00
49030;BME280;43337;52.070;4.508;2023-03-14T03:47:22;98872.69;;;9.60;100.00
49030;BME280;43337;52.070;4.508;2023-03-14T03:49:49;98870.19;;;9.58;100.00
49030;BME280;43337;52.070;4.508;2023-03-14T03:52:14;98871.00;;;9.59;100.00
49030;BME280;43337;52.070;4.508;2023-03-14T03:54:40;98871.13;;;9.57;100.00
49030;BME280;43337;52.070;4.508;2023-03-14T03:57:05;98870.06;;;9.60;100.00
49030;BME280;43337;52.070;4.508;2023-03-14T03:59:31;98877.31;;;9.56;100.00
49030;BME280;43337;52.070;4.508;2023-03-14T04:01:56;98873.97;;;9.54;100.00
49030;BME280;43337;52.070;4.508;2023-03-14T04:04:21;98885.19;;;9.56;100.00
49030;BME280;43337;52.070;4.508;2023-03-14T04:06:47;98879.44;;;9.51;100.00
49030;BME280;43337;52.070;4.508;2023-03-14T04:09:12;98904.56;;;9.42;100.00
49030;BME280;43337;52.070;4.508;2023-03-14T04:11:38;98899.19;;;9.31;100.00
49030;BME280;43337;52.070;4.508;2023-03-14T04:14:04;98886.16;;;9.17;100.00
49030;BME280;43337;52.070;4.508;2023-03-14T04:16:30;98870.50;;;9.02;100.00
49030;BME280;43337;52.070;4.508;2023-03-14T04:18:59;98855.13;;;8.84;100.00
49030;BME280;43337;52.070;4.508;2023-03-14T04:21:24;98873.22;;;8.88;100.00
49030;BME280;43337;52.070;4.508;2023-03-14T04:23:50;98891.16;;;8.82;100.00
49030;BME280;43337;52.070;4.508;2023-03-14T04:26:16;98899.66;;;8.85;100.00
49030;BME280;43337;52.070;4.508;2023-03-14T04:28:41;98887.13;;;8.76;100.00
49030;BME280;43337;52.070;4.508;2023-03-14T04:31:08;98890.81;;;8.73;100.00
49030;BME280;43337;52.070;4.508;2023-03-14T04:33:33;98888.59;;;8.67;100.00
49030;BME280;43337;52.070;4.508;2023-03-14T04:35:59;98876.94;;;8.59;100.00
49030;BME280;43337;52.070;4.508;2023-03-14T04:38:24;98895.00;;;8.63;100.00
49030;BME280;43337;52.070;4.508;2023-03-14T04:40:49;98897.50;;;8.65;100.00
49030;BME280;43337;52.070;4.508;2023-03-14T04:43:15;98868.63;;;8.52;100.00
49030;BME280;43337;52.070;4.508;2023-03-14T04:45:43;98865.34;;;8.48;100.00
49030;BME280;43337;52.070;4.508;2023-03-14T04:48:09;98847.13;;;8.32;100.00
49030;BME280;43337;52.070;4.508;2023-03-14T04:50:34;98839.47;;;8.29;100.00
49030;BME280;43337;52.070;4.508;2023-03-14T04:52:59;98875.84;;;8.48;100.00
49030;BME280;43337;52.070;4.508;2023-03-14T04:55:25;98874.94;;;8.49;100.00
49030;BME280;43337;52.070;4.508;2023-03-14T04:57:50;98859.06;;;8.38;100.00
49030;BME280;43337;52.070;4.508;2023-03-14T05:00:16;98876.03;;;8.45;100.00
49030;BME280;43337;52.070;4.508;2023-03-14T05:02:43;98874.16;;;8.47;100.00
49030;BME280;43337;52.070;4.508;2023-03-14T05:05:09;98877.81;;;8.45;100.00
49030;BME280;43337;52.070;4.508;2023-03-14T05:07:36;98868.28;;;8.44;100.00
49030;BME280;43337;52.070;4.508;2023-03-14T05:10:02;98866.97;;;8.37;100.00
49030;BME280;43337;52.070;4.508;2023-03-14T05:12:27;98880.75;;;8.40;100.00
49030;BME280;43337;52.070;4.508;2023-03-14T05:14:53;98861.28;;;8.30;100.00
49030;BME280;43337;52.070;4.508;2023-03-14T05:17:18;98882.88;;;8.33;100.00
49030;BME280;43337;52.070;4.508;2023-03-14T05:19:44;98857.38;;;8.23;100.00
49030;BME280;43337;52.070;4.508;2023-03-14T05:22:10;98867.97;;;8.21;100.00
49030;BME280;43337;52.070;4.508;2023-03-14T05:24:36;98890.97;;;8.30;100.00
49030;BME280;43337;52.070;4.508;2023-03-14T05:27:02;98903.03;;;8.33;100.00
49030;BME280;43337;52.070;4.508;2023-03-14T05:29:27;98911.09;;;8.30;100.00
49030;BME280;43337;52.070;4.508;2023-03-14T05:31:53;98944.44;;;8.28;100.00
49030;BME280;43337;52.070;4.508;2023-03-14T05:34:18;98924.47;;;7.98;100.00
49030;BME280;43337;52.070;4.508;2023-03-14T05:36:43;98957.78;;;7.96;100.00
49030;BME280;43337;52.070;4.508;2023-03-14T05:39:09;98968.09;;;7.85;100.00
49030;BME280;43337;52.070;4.508;2023-03-14T05:41:34;98976.50;;;7.76;100.00
49030;BME280;43337;52.070;4.508;2023-03-14T05:44:01;98975.75;;;7.59;100.00
49030;BME280;43337;52.070;4.508;2023-03-14T05:46:26;98974.97;;;7.43;100.00
49030;BME280;43337;52.070;4.508;2023-03-14T05:48:51;98985.44;;;7.43;100.00
49030;BME280;43337;52.070;4.508;2023-03-14T05:51:17;99004.06;;;7.39;100.00
49030;BME280;43337;52.070;4.508;2023-03-14T05:53:42;99001.97;;;7.29;100.00
49030;BME280;43337;52.070;4.508;2023-03-14T05:56:08;99020.47;;;7.26;100.00
49030;BME280;43337;52.070;4.508;2023-03-14T05:58:33;98995.38;;;7.08;100.00
49030;BME280;43337;52.070;4.508;2023-03-14T06:01:03;99026.50;;;7.13;100.00
49030;BME280;43337;52.070;4.508;2023-03-14T06:03:28;99029.97;;;7.13;100.00
49030;BME280;43337;52.070;4.508;2023-03-14T06:05:54;99005.69;;;6.95;100.00
49030;BME280;43337;52.070;4.508;2023-03-14T06:08:19;99041.63;;;7.07;100.00
49030;BME280;43337;52.070;4.508;2023-03-14T06:10:44;99021.75;;;6.89;100.00
49030;BME280;43337;52.070;4.508;2023-03-14T06:13:10;99045.53;;;7.00;100.00
49030;BME280;43337;52.070;4.508;2023-03-14T06:15:38;99026.38;;;6.84;100.00
49030;BME280;43337;52.070;4.508;2023-03-14T06:18:03;99060.44;;;6.98;100.00
49030;BME280;43337;52.070;4.508;2023-03-14T06:20:28;99033.63;;;6.79;100.00
49030;BME280;43337;52.070;4.508;2023-03-14T06:22:54;99070.91;;;6.98;100.00
49030;BME280;43337;52.070;4.508;2023-03-14T06:25:19;99072.84;;;6.95;100.00
49030;BME280;43337;52.070;4.508;2023-03-14T06:27:45;99053.81;;;6.77;100.00
49030;BME280;43337;52.070;4.508;2023-03-14T06:30:11;99069.41;;;6.78;100.00
49030;BME280;43337;52.070;4.508;2023-03-14T06:32:36;99087.72;;;6.78;100.00
49030;BME280;43337;52.070;4.508;2023-03-14T06:35:02;99102.75;;;6.75;100.00
49030;BME280;43337;52.070;4.508;2023-03-14T06:37:28;99111.25;;;6.63;100.00
49030;BME280;43337;52.070;4.508;2023-03-14T06:39:54;99126.78;;;6.66;100.00
49030;BME280;43337;52.070;4.508;2023-03-14T06:42:19;99115.03;;;6.57;100.00
49030;BME280;43337;52.070;4.508;2023-03-14T06:44:45;99114.84;;;6.44;100.00
49030;BME280;43337;52.070;4.508;2023-03-14T06:47:11;99138.50;;;6.58;100.00
49030;BME280;43337;52.070;4.508;2023-03-14T06:49:37;99144.66;;;6.57;100.00
49030;BME280;43337;52.070;4.508;2023-03-14T06:52:02;99148.44;;;6.52;100.00
49030;BME280;43337;52.070;4.508;2023-03-14T06:54:28;99147.00;;;6.46;100.00
49030;BME280;43337;52.070;4.508;2023-03-14T06:56:54;99180.59;;;6.54;100.00
49030;BME280;43337;52.070;4.508;2023-03-14T06:59:19;99189.31;;;6.53;100.00
49030;BME280;43337;52.070;4.508;2023-03-14T07:01:44;99200.56;;;6.55;100.00
49030;BME280;43337;52.070;4.508;2023-03-14T07:04:10;99199.97;;;6.50;100.00
49030;BME280;43337;52.070;4.508;2023-03-14T07:06:36;99226.56;;;6.58;100.00
49030;BME280;43337;52.070;4.508;2023-03-14T07:09:01;99229.06;;;6.59;100.00
49030;BME280;43337;52.070;4.508;2023-03-14T07:11:27;99231.00;;;6.56;100.00
49030;BME280;43337;52.070;4.508;2023-03-14T07:13:53;99213.34;;;6.44;100.00
49030;BME280;43337;52.070;4.508;2023-03-14T07:16:18;99227.00;;;6.49;100.00
49030;BME280;43337;52.070;4.508;2023-03-14T07:18:45;99231.94;;;6.55;100.00
49030;BME280;43337;52.070;4.508;2023-03-14T07:21:10;99245.16;;;6.52;100.00
49030;BME280;43337;52.070;4.508;2023-03-14T07:23:37;99270.06;;;6.59;100.00
49030;BME280;43337;52.070;4.508;2023-03-14T07:26:03;99276.53;;;6.52;100.00
49030;BME280;43337;52.070;4.508;2023-03-14T07:28:28;99276.69;;;6.49;100.00
49030;BME280;43337;52.070;4.508;2023-03-14T07:30:54;99280.69;;;6.56;100.00
49030;BME280;43337;52.070;4.508;2023-03-14T07:33:19;99270.06;;;6.42;100.00
49030;BME280;43337;52.070;4.508;2023-03-14T07:35:47;99303.28;;;6.57;100.00
49030;BME280;43337;52.070;4.508;2023-03-14T07:38:13;99322.91;;;6.48;100.00
49030;BME280;43337;52.070;4.508;2023-03-14T07:40:38;99345.59;;;6.48;100.00
49030;BME280;43337;52.070;4.508;2023-03-14T07:43:04;99347.13;;;6.34;100.00
49030;BME280;43337;52.070;4.508;2023-03-14T07:45:29;99359.88;;;6.23;100.00
49030;BME280;43337;52.070;4.508;2023-03-14T07:47:55;99394.91;;;6.19;100.00
49030;BME280;43337;52.070;4.508;2023-03-14T07:50:24;99402.47;;;6.06;100.00
49030;BME280;43337;52.070;4.508;2023-03-14T07:52:50;99419.34;;;5.99;100.00
49030;BME280;43337;52.070;4.508;2023-03-14T07:55:15;99427.47;;;5.93;100.00
49030;BME280;43337;52.070;4.508;2023-03-14T07:57:41;99438.13;;;5.88;100.00
49030;BME280;43337;52.070;4.508;2023-03-14T08:00:07;99451.44;;;5.82;100.00
49030;BME280;43337;52.070;4.508;2023-03-14T08:02:34;99459.53;;;5.76;100.00
49030;BME280;43337;52.070;4.508;2023-03-14T08:05:01;99464.06;;;5.73;100.00
49030;BME280;43337;52.070;4.508;2023-03-14T08:07:26;99461.94;;;5.62;100.00
49030;BME280;43337;52.070;4.508;2023-03-14T08:09:52;99475.75;;;5.64;100.00
49030;BME280;43337;52.070;4.508;2023-03-14T08:12:17;99488.09;;;5.60;100.00
49030;BME280;43337;52.070;4.508;2023-03-14T08:14:43;99504.47;;;5.64;100.00
49030;BME280;43337;52.070;4.508;2023-03-14T08:17:08;99501.31;;;5.57;100.00
49030;BME280;43337;52.070;4.508;2023-03-14T08:19:34;99533.00;;;5.69;100.00
49030;BME280;43337;52.070;4.508;2023-03-14T08:21:59;99544.34;;;5.68;100.00
49030;BME280;43337;52.070;4.508;2023-03-14T08:24:25;99545.69;;;5.57;100.00
49030;BME280;43337;52.070;4.508;2023-03-14T08:26:50;99570.75;;;5.61;100.00
49030;BME280;43337;52.070;4.508;2023-03-14T08:29:15;99582.38;;;5.54;100.00
49030;BME280;43337;52.070;4.508;2023-03-14T08:31:41;99589.00;;;5.41;100.00
49030;BME280;43337;52.070;4.508;2023-03-14T08:34:07;99604.84;;;5.36;100.00
49030;BME280;43337;52.070;4.508;2023-03-14T08:36:32;99602.63;;;5.27;100.00
49030;BME280;43337;52.070;4.508;2023-03-14T08:38:58;99618.69;;;5.17;100.00
49030;BME280;43337;52.070;4.508;2023-03-14T08:41:23;99639.50;;;5.18;100.00
49030;BME280;43337;52.070;4.508;2023-03-14T08:43:50;99644.88;;;5.15;100.00
49030;BME280;43337;52.070;4.508;2023-03-14T08:46:15;99658.50;;;5.22;100.00
49030;BME280;43337;52.070;4.508;2023-03-14T08:48:41;99659.31;;;5.24;100.00
49030;BME280;43337;52.070;4.508;2023-03-14T08:51:08;99672.81;;;5.33;100.00
49030;BME280;43337;52.070;4.508;2023-03-14T08:53:34;99686.38;;;5.43;100.00
49030;BME280;43337;52.070;4.508;2023-03-14T08:55:59;99705.19;;;5.51;100.00
49030;BME280;43337;52.070;4.508;2023-03-14T08:58:25;99705.78;;;5.58;100.00
49030;BME280;43337;52.070;4.508;2023-03-14T09:00:50;99706.44;;;5.63;100.00
49030;BME280;43337;52.070;4.508;2023-03-14T09:03:16;99716.81;;;5.64;100.00
49030;BME280;43337;52.070;4.508;2023-03-14T09:05:41;99727.09;;;5.69;100.00
49030;BME280;43337;52.070;4.508;2023-03-14T09:08:07;99717.53;;;5.68;100.00
49030;BME280;43337;52.070;4.508;2023-03-14T09:10:32;99719.91;;;5.74;100.00
49030;BME280;43337;52.070;4.508;2023-03-14T09:12:57;99750.75;;;5.86;100.00
49030;BME280;43337;52.070;4.508;2023-03-14T09:15:24;99755.94;;;5.88;100.00
49030;BME280;43337;52.070;4.508;2023-03-14T09:17:49;99764.63;;;5.88;100.00
49030;BME280;43337;52.070;4.508;2023-03-14T09:20:14;99763.16;;;5.81;100.00
49030;BME280;43337;52.070;4.508;2023-03-14T09:22:40;99782.38;;;5.80;100.00
49030;BME280;43337;52.070;4.508;2023-03-14T09:25:06;99772.56;;;5.63;100.00
49030;BME280;43337;52.070;4.508;2023-03-14T09:27:31;99809.31;;;5.81;100.00
49030;BME280;43337;52.070;4.508;2023-03-14T09:29:57;99819.06;;;5.76;100.00
49030;BME280;43337;52.070;4.508;2023-03-14T09:32:22;99831.59;;;5.68;100.00
49030;BME280;43337;52.070;4.508;2023-03-14T09:34:47;99849.81;;;5.69;100.00
49030;BME280;43337;52.070;4.508;2023-03-14T09:37:13;99869.28;;;5.60;100.00
49030;BME280;43337;52.070;4.508;2023-03-14T09:39:40;99867.25;;;5.45;100.00
49030;BME280;43337;52.070;4.508;2023-03-14T09:42:08;99859.69;;;5.37;100.00
49030;BME280;43337;52.070;4.508;2023-03-14T09:44:45;99849.78;;;5.24;100.00
49030;BME280;43337;52.070;4.508;2023-03-14T09:47:16;99871.78;;;5.40;100.00
49030;BME280;43337;52.070;4.508;2023-03-14T09:49:45;99881.31;;;5.41;100.00
49030;BME280;43337;52.070;4.508;2023-03-14T09:52:23;99896.81;;;5.46;100.00
49030;BME280;43337;52.070;4.508;2023-03-14T09:54:57;99901.88;;;5.50;100.00
49030;BME280;43337;52.070;4.508;2023-03-14T09:57:25;99898.44;;;5.50;100.00
49030;BME280;43337;52.070;4.508;2023-03-14T09:59:51;99910.50;;;5.52;100.00
49030;BME280;43337;52.070;4.508;2023-03-14T10:02:24;99937.81;;;5.67;100.00
49030;BME280;43337;52.070;4.508;2023-03-14T10:04:51;99956.00;;;5.69;100.00
49030;BME280;43337;52.070;4.508;2023-03-14T10:07:28;99953.41;;;5.69;100.00
49030;BME280;43337;52.070;4.508;2023-03-14T10:09:54;99949.19;;;5.64;100.00
49030;BME280;43337;52.070;4.508;2023-03-14T10:12:20;99969.13;;;5.67;100.00
49030;BME280;43337;52.070;4.508;2023-03-14T10:14:55;99983.00;;;5.69;100.00
49030;BME280;43337;52.070;4.508;2023-03-14T10:17:20;99989.28;;;5.63;100.00
49030;BME280;43337;52.070;4.508;2023-03-14T10:19:57;100009.91;;;5.71;100.00
49030;BME280;43337;52.070;4.508;2023-03-14T10:22:26;100011.50;;;5.75;100.00
49030;BME280;43337;52.070;4.508;2023-03-14T10:24:56;99988.34;;;5.66;100.00
49030;BME280;43337;52.070;4.508;2023-03-14T10:27:30;100023.22;;;5.88;100.00
49030;BME280;43337;52.070;4.508;2023-03-14T10:30:05;100047.38;;;5.95;100.00
49030;BME280;43337;52.070;4.508;2023-03-14T10:32:34;100054.06;;;6.04;100.00
49030;BME280;43337;52.070;4.508;2023-03-14T10:35:18;100058.19;;;6.09;100.00
49030;BME280;43337;52.070;4.508;2023-03-14T10:38:02;100070.34;;;6.10;100.00
49030;BME280;43337;52.070;4.508;2023-03-14T10:40:33;100077.41;;;6.08;100.00
49030;BME280;43337;52.070;4.508;2023-03-14T10:43:05;100074.94;;;6.04;100.00
49030;BME280;43337;52.070;4.508;2023-03-14T10:45:41;100097.38;;;6.09;100.00
49030;BME280;43337;52.070;4.508;2023-03-14T10:48:23;100103.53;;;6.08;100.00
49030;BME280;43337;52.070;4.508;2023-03-14T10:53:45;100118.38;;;6.06;100.00
49030;BME280;43337;52.070;4.508;2023-03-14T10:56:21;100126.94;;;6.11;100.00
49030;BME280;43337;52.070;4.508;2023-03-14T10:58:56;100130.13;;;6.20;100.00
49030;BME280;43337;52.070;4.508;2023-03-14T11:07:11;100167.81;;;6.38;100.00
49030;BME280;43337;52.070;4.508;2023-03-14T11:09:58;100163.94;;;6.24;100.00
49030;BME280;43337;52.070;4.508;2023-03-14T11:27:22;100247.56;;;6.74;100.00
49030;BME280;43337;52.070;4.508;2023-03-14T11:29:47;100251.66;;;6.81;100.00
49030;BME280;43337;52.070;4.508;2023-03-14T11:35:16;100266.34;;;6.85;100.00
49030;BME280;43337;52.070;4.508;2023-03-14T11:40:50;100287.00;;;6.93;100.00
49030;BME280;43337;52.070;4.508;2023-03-14T11:43:28;100289.44;;;6.98;100.00
49030;BME280;43337;52.070;4.508;2023-03-14T11:46:08;100276.13;;;6.80;100.00
49030;BME280;43337;52.070;4.508;2023-03-14T11:48:38;100302.06;;;6.87;100.00
49030;BME280;43337;52.070;4.508;2023-03-14T11:51:14;100305.09;;;6.99;100.00
49030;BME280;43337;52.070;4.508;2023-03-14T11:53:53;100313.47;;;7.09;100.00
49030;BME280;43337;52.070;4.508;2023-03-14T11:56:38;100315.16;;;7.10;100.00
49030;BME280;43337;52.070;4.508;2023-03-14T11:59:23;100333.03;;;7.22;100.00
49030;BME280;43337;52.070;4.508;2023-03-14T12:08:19;100339.44;;;7.15;100.00
49030;BME280;43337;52.070;4.508;2023-03-14T12:10:55;100359.19;;;7.24;100.00
49030;BME280;43337;52.070;4.508;2023-03-14T12:13:28;100351.44;;;7.21;100.00
49030;BME280;43337;52.070;4.508;2023-03-14T12:15:59;100367.06;;;7.22;100.00
49030;BME280;43337;52.070;4.508;2023-03-14T12:18:31;100366.34;;;7.19;100.00
49030;BME280;43337;52.070;4.508;2023-03-14T12:21:07;100366.75;;;7.08;100.00
49030;BME280;43337;52.070;4.508;2023-03-14T12:23:53;100380.13;;;6.99;100.00
49030;BME280;43337;52.070;4.508;2023-03-14T12:26:21;100380.25;;;6.96;100.00
49030;BME280;43337;52.070;4.508;2023-03-14T12:39:33;100398.16;;;7.08;100.00
49030;BME280;43337;52.070;4.508;2023-03-14T12:42:14;100410.13;;;7.15;100.00
49030;BME280;43337;52.070;4.508;2023-03-14T12:44:44;100400.06;;;7.03;100.00
49030;BME280;43337;52.070;4.508;2023-03-14T12:49:44;100420.97;;;7.04;100.00
49030;BME280;43337;52.070;4.508;2023-03-14T12:52:21;100432.69;;;7.18;100.00
49030;BME280;43337;52.070;4.508;2023-03-14T12:57:42;100457.28;;;7.39;100.00
49030;BME280;43337;52.070;4.508;2023-03-14T13:02:49;100465.63;;;7.50;100.00
49030;BME280;43337;52.070;4.508;2023-03-14T13:05:18;100463.09;;;7.47;100.00
49030;BME280;43337;52.070;4.508;2023-03-14T13:10:23;100482.66;;;7.37;100.00
49030;BME280;43337;52.070;4.508;2023-03-14T13:13:03;100473.28;;;7.31;100.00
49030;BME280;43337;52.070;4.508;2023-03-14T13:15:46;100501.69;;;7.42;100.00
49030;BME280;43337;52.070;4.508;2023-03-14T13:20:52;100508.34;;;7.25;100.00
49030;BME280;43337;52.070;4.508;2023-03-14T13:23:24;100525.84;;;7.25;100.00
49030;BME280;43337;52.070;4.508;2023-03-14T13:25:50;100510.66;;;7.09;100.00
49030;BME280;43337;52.070;4.508;2023-03-14T13:28:17;100532.16;;;7.19;100.00
49030;BME280;43337;52.070;4.508;2023-03-14T13:30:45;100535.66;;;7.18;100.00
49030;BME280;43337;52.070;4.508;2023-03-14T13:33:17;100558.16;;;7.24;100.00
49030;BME280;43337;52.070;4.508;2023-03-14T13:35:56;100554.72;;;7.22;100.00
49030;BME280;43337;52.070;4.508;2023-03-14T13:38:27;100565.94;;;7.27;100.00
49030;BME280;43337;52.070;4.508;2023-03-14T13:40:57;100572.31;;;7.18;99.26
49030;BME280;43337;52.070;4.508;2023-03-14T13:43:28;100563.16;;;7.05;99.68
49030;BME280;43337;52.070;4.508;2023-03-14T13:48:28;100589.09;;;7.13;96.80
49030;BME280;43337;52.070;4.508;2023-03-14T13:51:16;100590.34;;;7.01;95.54
49030;BME280;43337;52.070;4.508;2023-03-14T13:53:50;100605.19;;;7.00;97.78
49030;BME280;43337;52.070;4.508;2023-03-14T13:56:20;100602.72;;;6.96;98.21
49030;BME280;43337;52.070;4.508;2023-03-14T13:58:46;100587.97;;;6.92;97.68
49030;BME280;43337;52.070;4.508;2023-03-14T14:01:20;100615.88;;;6.93;100.00
49030;BME280;43337;52.070;4.508;2023-03-14T14:03:50;100618.53;;;6.91;100.00
49030;BME280;43337;52.070;4.508;2023-03-14T14:08:46;100629.75;;;6.96;99.55
49030;BME280;43337;52.070;4.508;2023-03-14T14:11:31;100639.44;;;6.93;93.42